Nearby METAR Reports

 

KBVO - Bartlesville, Oklahoma, USA
Distance from station: WNW 10mi, 16km
Updated: Tue, 22-Aug-2017 1:53am CDT
Clear
Clear
 Wind from SSW
Wind: SSW 10 mph , 17 km/h
Temperature: 81°F , 27°C
Heat Index: 85°F , 29°C
Dew Point: 72°F , 22°C
Humidity: 74%
Barometer: 29.99 inHg , 1015.6 hPa
Clouds: Clear
Visibility: 10 miles , 16 km
2017/08/22 06:53 KBVO 220653Z AUTO 20009KT 10SM CLR 27/22 A2999 RMK AO2 SLP144 T02670222
KCFV - Coffeyville, Kansas, USA
Distance from station: NNE 31mi, 49km
Updated: Tue, 22-Aug-2017 1:52am CDT
Few Clouds
Few Clouds
 Wind from SSW
Wind: SSW 15 mph , 24 km/h
Temperature: 81°F , 27°C
Heat Index: 86°F , 30°C
Dew Point: 73°F , 23°C
Humidity: 79%
Barometer: 29.97 inHg , 1014.9 hPa
Clouds: Few Clouds
Visibility: 10 miles , 16 km
Cloud details: Few Clouds 12000 ft
2017/08/22 06:52 KCFV 220652Z AUTO 20013KT 10SM FEW120 27/23 A2997 RMK AO2 SLP141 T02720228
 
KIDP - Independence, Kansas, USA
Distance from station: N 32mi, 52km
Updated: Tue, 22-Aug-2017 1:55am CDT
Clear
Clear
 Wind from SSW
Wind: SSW 13 mph , 20 km/h, Gust: 22 mph , 35 km/h
Temperature: 79°F , 26°C
Dew Point: 73°F , 23°C
Humidity: 84%
Barometer: 29.97 inHg , 1014.9 hPa
Clouds: Clear
Visibility: 10 miles , 16 km
2017/08/22 06:55 KIDP 220655Z AUTO 20011G19KT 10SM CLR 26/23 A2997 RMK AO2 LTG DSNT N T02640233
KGCM - Claremore, Oklahoma, USA
Distance from station: SE 35mi, 56km
Updated: Tue, 22-Aug-2017 1:55am CDT
Clear
Clear
 Wind from SSW
Wind: SSW 9 mph , 15 km/h
Temperature: 77°F , 25°C
Dew Point: 72°F , 22°C
Humidity: 83%
Barometer: 30.03 inHg , 1016.9 hPa
Clouds: Clear
Visibility: 10 miles , 16 km
2017/08/22 06:55 KGCM 220655Z AUTO 20008KT 10SM CLR 25/22 A3003 RMK AO2
 
KTUL - Tulsa, Oklahoma, USA
Distance from station: S 35mi, 56km
Updated: Tue, 22-Aug-2017 1:53am CDT
Partly cloudy
Partly cloudy
 Wind from S
Wind: S 13 mph , 20 km/h, Gust: 21 mph , 33 km/h
Temperature: 82°F , 28°C
Heat Index: 87°F , 31°C
Dew Point: 73°F , 23°C
Humidity: 74%
Barometer: 29.99 inHg , 1015.6 hPa
Clouds: Partly cloudy
Visibility: 10 miles , 16 km
Cloud details: Partly cloudy 15000 ft
Partly cloudy 25000 ft
2017/08/22 06:53 KTUL 220653Z 18011G18KT 10SM SCT150 SCT250 28/23 A2999 RMK AO2 SLP145 T02780228
KRVS - Tulsa, Oklahoma, USA
Distance from station: S 46mi, 74km
Updated: Tue, 22-Aug-2017 1:53am CDT
Clear
Clear
 Wind from S
Wind: S 7 mph , 11 km/h
Temperature: 81°F , 27°C
Heat Index: 85°F , 29°C
Dew Point: 72°F , 22°C
Humidity: 74%
Barometer: 30.01 inHg , 1016.3 hPa
Clouds: Clear
Visibility: 10 miles , 16 km
2017/08/22 06:53 KRVS 220653Z 19006KT 10SM CLR 27/22 A3001 RMK AO2 SLP164 T02670222
 
KPPF - Parsons, Kansas, USA
Distance from station: NNE 48mi, 76km
Updated: Tue, 22-Aug-2017 1:52am CDT
Clear
Clear
 Wind from SSW
Wind: SSW 15 mph , 24 km/h, Gust: 20 mph , 31 km/h
Temperature: 81°F , 27°C
Heat Index: 86°F , 30°C
Dew Point: 73°F , 23°C
Humidity: 79%
Barometer: 29.99 inHg , 1015.6 hPa
Clouds: Clear
Visibility: 10 miles , 16 km
2017/08/22 06:52 KPPF 220652Z AUTO 21013G17KT 10SM CLR 27/23 A2999 RMK AO2 SLP141 T02720228
KGMJ - Grove, Oklahoma, USA
Distance from station: E 63mi, 101km
Updated: Tue, 22-Aug-2017 1:55am CDT
Clear
Clear
 Wind from SSW
Wind: SSW 12 mph , 19 km/h, Gust: 21 mph , 33 km/h
Temperature: 81°F , 27°C
Heat Index: 86°F , 30°C
Dew Point: 73°F , 23°C
Humidity: 79%
Barometer: 30.03 inHg , 1016.9 hPa
Clouds: Clear
Visibility: 10 miles , 16 km
2017/08/22 06:55 KGMJ 220655Z AUTO 20010G18KT 10SM CLR 27/23 A3003 RMK AO2 LTG DSNT NW
 
KPNC - Ponca City, Oklahoma, USA
Distance from station: W 69mi, 111km
Updated: Tue, 22-Aug-2017 1:53am CDT
Clear
Clear
 Wind from S
Wind: S 7 mph , 11 km/h
Temperature: 81°F , 27°C
Heat Index: 85°F , 29°C
Dew Point: 70°F , 21°C
Humidity: 70%
Barometer: 29.99 inHg , 1015.6 hPa
Clouds: Clear
Visibility: 10 miles , 16 km
2017/08/22 06:53 KPNC 220653Z AUTO 19006KT 10SM CLR 27/21 A2999 RMK AO2 SLP142 T02670211
KCNU - Chanute, Kansas, USA
Distance from station: NNE 69mi, 112km
Updated: Tue, 22-Aug-2017 1:52am CDT
Clear
Clear
 Wind from SSW
Wind: SSW 18 mph , 30 km/h, Gust: 26 mph , 43 km/h
Temperature: 81°F , 27°C
Heat Index: 86°F , 30°C
Dew Point: 73°F , 23°C
Humidity: 79%
Barometer: 29.96 inHg , 1014.6 hPa
Clouds: Clear
Visibility: 10 miles , 16 km
2017/08/22 06:52 KCNU 220652Z AUTO 21016G23KT 10SM CLR 27/23 A2996 RMK AO2 LTG DSNT N AND NW SLP132 T02720228